sensor_id;sensor_type;location;lat;lon;timestamp;temperature;humidity
30385;DHT22;17181;51.002;4.096;2023-02-28T00:00:28;2.50;84.30
30385;DHT22;17181;51.002;4.096;2023-02-28T00:02:54;2.40;84.30
30385;DHT22;17181;51.002;4.096;2023-02-28T00:05:22;2.40;84.60
30385;DHT22;17181;51.002;4.096;2023-02-28T00:07:49;2.40;84.80
30385;DHT22;17181;51.002;4.096;2023-02-28T00:10:25;2.40;85.00
30385;DHT22;17181;51.002;4.096;2023-02-28T00:12:53;2.40;85.10
30385;DHT22;17181;51.002;4.096;2023-02-28T00:15:20;2.40;85.20
30385;DHT22;17181;51.002;4.096;2023-02-28T00:17:46;2.30;85.20
30385;DHT22;17181;51.002;4.096;2023-02-28T00:20:13;2.40;85.40
30385;DHT22;17181;51.002;4.096;2023-02-28T00:22:41;2.30;85.40
30385;DHT22;17181;51.002;4.096;2023-02-28T00:25:08;2.30;85.60
30385;DHT22;17181;51.002;4.096;2023-02-28T00:27:35;2.20;85.60
30385;DHT22;17181;51.002;4.096;2023-02-28T00:30:05;2.30;85.80
30385;DHT22;17181;51.002;4.096;2023-02-28T00:32:31;2.20;86.00
30385;DHT22;17181;51.002;4.096;2023-02-28T00:34:57;2.30;86.20
30385;DHT22;17181;51.002;4.096;2023-02-28T00:37:23;2.30;86.30
30385;DHT22;17181;51.002;4.096;2023-02-28T00:39:49;2.40;86.40
30385;DHT22;17181;51.002;4.096;2023-02-28T00:42:15;2.30;86.40
30385;DHT22;17181;51.002;4.096;2023-02-28T00:44:41;2.30;86.50
30385;DHT22;17181;51.002;4.096;2023-02-28T00:47:07;2.30;86.70
30385;DHT22;17181;51.002;4.096;2023-02-28T00:49:33;2.30;86.80
30385;DHT22;17181;51.002;4.096;2023-02-28T00:51:58;2.40;86.90
30385;DHT22;17181;51.002;4.096;2023-02-28T00:54:25;2.40;87.00
30385;DHT22;17181;51.002;4.096;2023-02-28T00:56:51;2.30;87.00
30385;DHT22;17181;51.002;4.096;2023-02-28T00:59:17;2.30;87.10
30385;DHT22;17181;51.002;4.096;2023-02-28T01:01:45;2.30;87.20
30385;DHT22;17181;51.002;4.096;2023-02-28T01:04:11;2.30;87.30
30385;DHT22;17181;51.002;4.096;2023-02-28T01:06:37;2.30;87.50
30385;DHT22;17181;51.002;4.096;2023-02-28T01:09:05;2.10;87.40
30385;DHT22;17181;51.002;4.096;2023-02-28T01:11:32;2.10;87.50
30385;DHT22;17181;51.002;4.096;2023-02-28T01:13:58;2.20;87.70
30385;DHT22;17181;51.002;4.096;2023-02-28T01:16:24;2.10;87.60
30385;DHT22;17181;51.002;4.096;2023-02-28T01:18:50;2.10;87.70
30385;DHT22;17181;51.002;4.096;2023-02-28T01:21:18;2.10;87.80
30385;DHT22;17181;51.002;4.096;2023-02-28T01:23:44;2.00;87.80
30385;DHT22;17181;51.002;4.096;2023-02-28T01:26:13;2.00;87.90
30385;DHT22;17181;51.002;4.096;2023-02-28T01:28:39;2.00;88.00
30385;DHT22;17181;51.002;4.096;2023-02-28T01:31:05;2.00;88.20
30385;DHT22;17181;51.002;4.096;2023-02-28T01:33:32;1.90;88.30
30385;DHT22;17181;51.002;4.096;2023-02-28T01:36:00;2.00;88.50
30385;DHT22;17181;51.002;4.096;2023-02-28T01:38:26;2.00;88.60
30385;DHT22;17181;51.002;4.096;2023-02-28T01:40:53;2.00;88.60
30385;DHT22;17181;51.002;4.096;2023-02-28T01:43:24;2.00;88.70
30385;DHT22;17181;51.002;4.096;2023-02-28T01:45:52;2.00;88.80
30385;DHT22;17181;51.002;4.096;2023-02-28T01:48:20;2.00;88.80
30385;DHT22;17181;51.002;4.096;2023-02-28T01:50:47;1.90;88.90
30385;DHT22;17181;51.002;4.096;2023-02-28T01:53:18;2.00;89.00
30385;DHT22;17181;51.002;4.096;2023-02-28T01:55:47;2.00;89.20
30385;DHT22;17181;51.002;4.096;2023-02-28T01:58:14;2.00;89.30
30385;DHT22;17181;51.002;4.096;2023-02-28T02:00:40;2.00;89.40
30385;DHT22;17181;51.002;4.096;2023-02-28T02:03:12;1.90;89.50
30385;DHT22;17181;51.002;4.096;2023-02-28T02:05:39;2.00;89.50
30385;DHT22;17181;51.002;4.096;2023-02-28T02:08:09;2.00;90.10
30385;DHT22;17181;51.002;4.096;2023-02-28T02:10:50;1.90;89.60
30385;DHT22;17181;51.002;4.096;2023-02-28T02:13:37;1.90;89.70
30385;DHT22;17181;51.002;4.096;2023-02-28T02:19:01;1.90;90.00
30385;DHT22;17181;51.002;4.096;2023-02-28T02:24:25;1.90;90.10
30385;DHT22;17181;51.002;4.096;2023-02-28T02:35:21;1.80;90.20
30385;DHT22;17181;51.002;4.096;2023-02-28T02:41:15;1.80;90.30
30385;DHT22;17181;51.002;4.096;2023-02-28T02:44:09;1.80;90.30
30385;DHT22;17181;51.002;4.096;2023-02-28T02:46:45;1.80;90.40
30385;DHT22;17181;51.002;4.096;2023-02-28T02:49:16;1.80;90.40
30385;DHT22;17181;51.002;4.096;2023-02-28T02:51:43;1.70;90.40
30385;DHT22;17181;51.002;4.096;2023-02-28T02:54:12;1.80;90.50
30385;DHT22;17181;51.002;4.096;2023-02-28T02:56:43;1.80;90.60
30385;DHT22;17181;51.002;4.096;2023-02-28T02:59:12;1.70;90.60
30385;DHT22;17181;51.002;4.096;2023-02-28T03:01:41;1.70;90.60
30385;DHT22;17181;51.002;4.096;2023-02-28T03:04:18;1.70;90.60
30385;DHT22;17181;51.002;4.096;2023-02-28T03:06:46;1.80;90.70
30385;DHT22;17181;51.002;4.096;2023-02-28T03:09:12;1.70;90.70
30385;DHT22;17181;51.002;4.096;2023-02-28T03:11:40;1.70;90.80
30385;DHT22;17181;51.002;4.096;2023-02-28T03:22:37;1.70;90.80
30385;DHT22;17181;51.002;4.096;2023-02-28T03:25:12;1.70;90.80
30385;DHT22;17181;51.002;4.096;2023-02-28T03:27:59;1.60;90.90
30385;DHT22;17181;51.002;4.096;2023-02-28T03:33:17;1.60;90.90
30385;DHT22;17181;51.002;4.096;2023-02-28T03:36:09;1.60;90.90
30385;DHT22;17181;51.002;4.096;2023-02-28T03:38:42;1.50;90.90
30385;DHT22;17181;51.002;4.096;2023-02-28T03:41:20;1.50;90.80
30385;DHT22;17181;51.002;4.096;2023-02-28T03:43:53;1.40;90.80
30385;DHT22;17181;51.002;4.096;2023-02-28T03:46:23;1.40;90.80
30385;DHT22;17181;51.002;4.096;2023-02-28T03:49:09;1.30;90.80
30385;DHT22;17181;51.002;4.096;2023-02-28T03:51:38;1.40;91.30
30385;DHT22;17181;51.002;4.096;2023-02-28T03:54:09;1.20;90.90
30385;DHT22;17181;51.002;4.096;2023-02-28T03:56:40;1.20;91.00
30385;DHT22;17181;51.002;4.096;2023-02-28T03:59:20;1.20;91.00
30385;DHT22;17181;51.002;4.096;2023-02-28T04:01:48;1.10;91.40
30385;DHT22;17181;51.002;4.096;2023-02-28T04:04:16;1.10;91.10
30385;DHT22;17181;51.002;4.096;2023-02-28T04:06:43;1.10;91.10
30385;DHT22;17181;51.002;4.096;2023-02-28T04:09:11;1.10;91.20
30385;DHT22;17181;51.002;4.096;2023-02-28T04:11:40;1.10;91.30
30385;DHT22;17181;51.002;4.096;2023-02-28T04:14:07;1.00;91.30
30385;DHT22;17181;51.002;4.096;2023-02-28T04:16:35;1.10;91.30
30385;DHT22;17181;51.002;4.096;2023-02-28T04:19:03;1.10;91.40
30385;DHT22;17181;51.002;4.096;2023-02-28T04:21:42;1.10;91.50
30385;DHT22;17181;51.002;4.096;2023-02-28T04:24:10;1.10;91.50
30385;DHT22;17181;51.002;4.096;2023-02-28T04:26:41;1.10;91.50
30385;DHT22;17181;51.002;4.096;2023-02-28T04:29:10;1.20;91.50
30385;DHT22;17181;51.002;4.096;2023-02-28T04:31:36;1.10;91.50
30385;DHT22;17181;51.002;4.096;2023-02-28T04:34:02;1.10;91.60
30385;DHT22;17181;51.002;4.096;2023-02-28T04:36:28;1.10;91.70
30385;DHT22;17181;51.002;4.096;2023-02-28T04:38:54;1.30;91.90
30385;DHT22;17181;51.002;4.096;2023-02-28T04:41:20;1.30;91.90
30385;DHT22;17181;51.002;4.096;2023-02-28T04:43:46;1.30;92.00
30385;DHT22;17181;51.002;4.096;2023-02-28T04:46:12;1.40;92.10
30385;DHT22;17181;51.002;4.096;2023-02-28T04:48:39;1.50;92.20
30385;DHT22;17181;51.002;4.096;2023-02-28T04:51:10;1.60;92.30
30385;DHT22;17181;51.002;4.096;2023-02-28T04:53:37;1.70;92.40
30385;DHT22;17181;51.002;4.096;2023-02-28T04:56:04;1.80;92.40
30385;DHT22;17181;51.002;4.096;2023-02-28T04:58:30;1.80;92.50
30385;DHT22;17181;51.002;4.096;2023-02-28T05:01:02;1.80;92.50
30385;DHT22;17181;51.002;4.096;2023-02-28T05:03:28;1.90;92.60
30385;DHT22;17181;51.002;4.096;2023-02-28T05:05:54;1.90;92.60
30385;DHT22;17181;51.002;4.096;2023-02-28T05:08:20;2.00;92.70
30385;DHT22;17181;51.002;4.096;2023-02-28T05:10:46;2.10;92.80
30385;DHT22;17181;51.002;4.096;2023-02-28T05:13:12;2.10;92.90
30385;DHT22;17181;51.002;4.096;2023-02-28T05:15:38;2.20;93.00
30385;DHT22;17181;51.002;4.096;2023-02-28T05:18:04;2.20;93.00
30385;DHT22;17181;51.002;4.096;2023-02-28T05:20:30;2.30;93.10
30385;DHT22;17181;51.002;4.096;2023-02-28T05:22:57;2.40;93.20
30385;DHT22;17181;51.002;4.096;2023-02-28T05:25:23;2.40;93.20
30385;DHT22;17181;51.002;4.096;2023-02-28T05:27:49;2.40;93.30
30385;DHT22;17181;51.002;4.096;2023-02-28T05:30:16;2.40;93.30
30385;DHT22;17181;51.002;4.096;2023-02-28T05:32:42;2.40;93.30
30385;DHT22;17181;51.002;4.096;2023-02-28T05:35:11;2.40;93.30
30385;DHT22;17181;51.002;4.096;2023-02-28T05:37:38;2.50;93.40
30385;DHT22;17181;51.002;4.096;2023-02-28T05:40:05;2.60;93.40
30385;DHT22;17181;51.002;4.096;2023-02-28T05:42:37;2.50;93.40
30385;DHT22;17181;51.002;4.096;2023-02-28T05:45:04;2.60;93.50
30385;DHT22;17181;51.002;4.096;2023-02-28T05:47:30;2.60;93.60
30385;DHT22;17181;51.002;4.096;2023-02-28T05:49:56;2.70;93.60
30385;DHT22;17181;51.002;4.096;2023-02-28T05:52:22;2.60;93.70
30385;DHT22;17181;51.002;4.096;2023-02-28T05:54:48;2.70;93.70
30385;DHT22;17181;51.002;4.096;2023-02-28T05:57:14;2.70;93.80
30385;DHT22;17181;51.002;4.096;2023-02-28T05:59:40;2.80;93.80
30385;DHT22;17181;51.002;4.096;2023-02-28T06:02:11;2.70;93.80
30385;DHT22;17181;51.002;4.096;2023-02-28T06:04:37;2.80;93.90
30385;DHT22;17181;51.002;4.096;2023-02-28T06:07:03;2.80;93.90
30385;DHT22;17181;51.002;4.096;2023-02-28T06:09:29;2.80;93.90
30385;DHT22;17181;51.002;4.096;2023-02-28T06:11:57;2.80;94.00
30385;DHT22;17181;51.002;4.096;2023-02-28T06:14:22;2.80;94.00
30385;DHT22;17181;51.002;4.096;2023-02-28T06:16:48;2.90;94.10
30385;DHT22;17181;51.002;4.096;2023-02-28T06:19:14;2.90;94.10
30385;DHT22;17181;51.002;4.096;2023-02-28T06:21:41;2.90;94.10
30385;DHT22;17181;51.002;4.096;2023-02-28T06:24:07;2.90;94.20
30385;DHT22;17181;51.002;4.096;2023-02-28T06:26:33;2.90;94.20
30385;DHT22;17181;51.002;4.096;2023-02-28T06:28:59;3.00;94.20
30385;DHT22;17181;51.002;4.096;2023-02-28T06:31:26;2.90;94.30
30385;DHT22;17181;51.002;4.096;2023-02-28T06:33:52;3.00;94.30
30385;DHT22;17181;51.002;4.096;2023-02-28T06:36:18;3.00;94.40
30385;DHT22;17181;51.002;4.096;2023-02-28T06:38:44;3.10;94.40
30385;DHT22;17181;51.002;4.096;2023-02-28T06:41:10;3.10;94.50
30385;DHT22;17181;51.002;4.096;2023-02-28T06:43:40;3.00;94.50
30385;DHT22;17181;51.002;4.096;2023-02-28T06:46:08;3.10;94.50
30385;DHT22;17181;51.002;4.096;2023-02-28T06:48:36;3.10;94.50
30385;DHT22;17181;51.002;4.096;2023-02-28T06:51:10;3.10;94.60
30385;DHT22;17181;51.002;4.096;2023-02-28T06:53:36;3.20;94.70
30385;DHT22;17181;51.002;4.096;2023-02-28T06:56:07;3.20;94.70
30385;DHT22;17181;51.002;4.096;2023-02-28T06:58:33;3.20;94.80
30385;DHT22;17181;51.002;4.096;2023-02-28T07:00:59;3.20;95.10
30385;DHT22;17181;51.002;4.096;2023-02-28T07:03:26;3.20;94.90
30385;DHT22;17181;51.002;4.096;2023-02-28T07:05:51;3.30;94.90
30385;DHT22;17181;51.002;4.096;2023-02-28T07:08:17;3.30;95.00
30385;DHT22;17181;51.002;4.096;2023-02-28T07:10:43;3.30;95.00
30385;DHT22;17181;51.002;4.096;2023-02-28T07:13:10;3.40;95.00
30385;DHT22;17181;51.002;4.096;2023-02-28T07:15:37;3.40;95.00
30385;DHT22;17181;51.002;4.096;2023-02-28T07:18:03;3.50;95.00
30385;DHT22;17181;51.002;4.096;2023-02-28T07:20:29;3.50;95.00
30385;DHT22;17181;51.002;4.096;2023-02-28T07:22:55;3.60;95.10
30385;DHT22;17181;51.002;4.096;2023-02-28T07:25:27;3.60;95.10
30385;DHT22;17181;51.002;4.096;2023-02-28T07:27:53;3.60;95.10
30385;DHT22;17181;51.002;4.096;2023-02-28T07:30:20;3.70;95.20
30385;DHT22;17181;51.002;4.096;2023-02-28T07:32:46;3.70;95.20
30385;DHT22;17181;51.002;4.096;2023-02-28T07:35:12;3.70;95.20
30385;DHT22;17181;51.002;4.096;2023-02-28T07:37:37;3.80;95.20
30385;DHT22;17181;51.002;4.096;2023-02-28T07:40:06;3.80;95.20
30385;DHT22;17181;51.002;4.096;2023-02-28T07:42:37;3.80;95.30
30385;DHT22;17181;51.002;4.096;2023-02-28T07:45:04;3.80;95.30
30385;DHT22;17181;51.002;4.096;2023-02-28T07:47:31;3.90;95.30
30385;DHT22;17181;51.002;4.096;2023-02-28T07:49:57;3.90;95.40
30385;DHT22;17181;51.002;4.096;2023-02-28T07:52:23;4.00;95.70
30385;DHT22;17181;51.002;4.096;2023-02-28T07:54:52;4.00;95.40
30385;DHT22;17181;51.002;4.096;2023-02-28T07:57:18;4.10;95.50
30385;DHT22;17181;51.002;4.096;2023-02-28T07:59:44;4.10;95.50
30385;DHT22;17181;51.002;4.096;2023-02-28T08:02:14;4.20;95.80
30385;DHT22;17181;51.002;4.096;2023-02-28T08:04:41;4.30;95.60
30385;DHT22;17181;51.002;4.096;2023-02-28T08:07:06;4.30;95.50
30385;DHT22;17181;51.002;4.096;2023-02-28T08:09:33;4.40;95.60
30385;DHT22;17181;51.002;4.096;2023-02-28T08:11:59;4.50;95.60
30385;DHT22;17181;51.002;4.096;2023-02-28T08:14:25;4.50;95.60
30385;DHT22;17181;51.002;4.096;2023-02-28T08:16:51;4.60;95.60
30385;DHT22;17181;51.002;4.096;2023-02-28T08:19:17;4.70;95.50
30385;DHT22;17181;51.002;4.096;2023-02-28T08:21:42;4.70;95.50
30385;DHT22;17181;51.002;4.096;2023-02-28T08:24:08;4.80;95.40
30385;DHT22;17181;51.002;4.096;2023-02-28T08:26:34;4.90;95.30
30385;DHT22;17181;51.002;4.096;2023-02-28T08:29:00;4.90;95.20
30385;DHT22;17181;51.002;4.096;2023-02-28T08:31:26;5.00;95.20
30385;DHT22;17181;51.002;4.096;2023-02-28T08:33:51;5.10;95.10
30385;DHT22;17181;51.002;4.096;2023-02-28T08:36:18;5.10;95.00
30385;DHT22;17181;51.002;4.096;2023-02-28T08:38:44;5.20;94.80
30385;DHT22;17181;51.002;4.096;2023-02-28T08:41:12;5.20;94.50
30385;DHT22;17181;51.002;4.096;2023-02-28T08:43:39;5.30;94.30
30385;DHT22;17181;51.002;4.096;2023-02-28T08:46:06;5.40;94.10
30385;DHT22;17181;51.002;4.096;2023-02-28T08:48:34;5.40;93.90
30385;DHT22;17181;51.002;4.096;2023-02-28T08:51:07;5.50;94.00
30385;DHT22;17181;51.002;4.096;2023-02-28T08:53:39;5.50;93.40
30385;DHT22;17181;51.002;4.096;2023-02-28T08:56:10;5.50;93.40
30385;DHT22;17181;51.002;4.096;2023-02-28T08:58:36;5.60;92.80
30385;DHT22;17181;51.002;4.096;2023-02-28T09:01:22;5.60;92.50
30385;DHT22;17181;51.002;4.096;2023-02-28T09:03:49;5.70;92.30
30385;DHT22;17181;51.002;4.096;2023-02-28T09:06:16;5.80;91.90
30385;DHT22;17181;51.002;4.096;2023-02-28T09:08:43;5.70;91.60
30385;DHT22;17181;51.002;4.096;2023-02-28T09:11:09;5.70;91.30
30385;DHT22;17181;51.002;4.096;2023-02-28T09:13:36;5.70;91.20
30385;DHT22;17181;51.002;4.096;2023-02-28T09:16:04;5.80;91.20
30385;DHT22;17181;51.002;4.096;2023-02-28T09:18:30;5.70;90.90
30385;DHT22;17181;51.002;4.096;2023-02-28T09:20:56;5.80;90.80
30385;DHT22;17181;51.002;4.096;2023-02-28T09:23:23;5.90;90.60
30385;DHT22;17181;51.002;4.096;2023-02-28T09:25:51;5.90;90.40
30385;DHT22;17181;51.002;4.096;2023-02-28T09:28:18;6.00;90.20
30385;DHT22;17181;51.002;4.096;2023-02-28T09:30:46;6.00;89.60
30385;DHT22;17181;51.002;4.096;2023-02-28T09:33:13;6.00;89.30
30385;DHT22;17181;51.002;4.096;2023-02-28T09:35:39;6.10;89.20
30385;DHT22;17181;51.002;4.096;2023-02-28T09:38:05;6.10;88.80
30385;DHT22;17181;51.002;4.096;2023-02-28T09:40:47;6.10;88.10
30385;DHT22;17181;51.002;4.096;2023-02-28T09:43:15;6.10;87.90
30385;DHT22;17181;51.002;4.096;2023-02-28T09:45:47;6.10;87.70
30385;DHT22;17181;51.002;4.096;2023-02-28T09:48:22;6.20;87.20
30385;DHT22;17181;51.002;4.096;2023-02-28T09:50:52;6.30;87.30
30385;DHT22;17181;51.002;4.096;2023-02-28T09:53:27;6.40;87.80
30385;DHT22;17181;51.002;4.096;2023-02-28T09:56:33;6.60;88.00
30385;DHT22;17181;51.002;4.096;2023-02-28T09:59:31;6.80;87.50
30385;DHT22;17181;51.002;4.096;2023-02-28T10:05:01;7.00;85.70
30385;DHT22;17181;51.002;4.096;2023-02-28T10:08:00;7.10;85.40
30385;DHT22;17181;51.002;4.096;2023-02-28T10:10:40;7.00;85.40
30385;DHT22;17181;51.002;4.096;2023-02-28T10:15:52;6.90;83.20
30385;DHT22;17181;51.002;4.096;2023-02-28T10:18:35;7.00;83.80
30385;DHT22;17181;51.002;4.096;2023-02-28T10:21:04;7.10;83.10
30385;DHT22;17181;51.002;4.096;2023-02-28T10:23:35;7.20;82.10
30385;DHT22;17181;51.002;4.096;2023-02-28T10:26:12;7.30;81.60
30385;DHT22;17181;51.002;4.096;2023-02-28T10:28:38;7.40;80.90
30385;DHT22;17181;51.002;4.096;2023-02-28T10:31:04;7.40;80.90
30385;DHT22;17181;51.002;4.096;2023-02-28T10:33:34;7.40;80.10
30385;DHT22;17181;51.002;4.096;2023-02-28T10:36:01;7.40;79.60
30385;DHT22;17181;51.002;4.096;2023-02-28T10:38:33;7.30;79.10
30385;DHT22;17181;51.002;4.096;2023-02-28T10:41:11;7.30;79.30
30385;DHT22;17181;51.002;4.096;2023-02-28T10:43:39;7.20;78.90
30385;DHT22;17181;51.002;4.096;2023-02-28T10:48:38;7.10;77.10
30385;DHT22;17181;51.002;4.096;2023-02-28T10:51:08;7.00;76.90
30385;DHT22;17181;51.002;4.096;2023-02-28T10:53:54;7.00;77.50
30385;DHT22;17181;51.002;4.096;2023-02-28T10:56:23;7.00;77.60
30385;DHT22;17181;51.002;4.096;2023-02-28T11:02:31;7.00;76.00
30385;DHT22;17181;51.002;4.096;2023-02-28T11:04:57;7.00;76.30
30385;DHT22;17181;51.002;4.096;2023-02-28T11:07:25;7.10;76.30
30385;DHT22;17181;51.002;4.096;2023-02-28T11:09:53;7.10;75.90
30385;DHT22;17181;51.002;4.096;2023-02-28T11:12:22;7.00;74.20
30385;DHT22;17181;51.002;4.096;2023-02-28T11:14:58;7.00;74.00
30385;DHT22;17181;51.002;4.096;2023-02-28T11:17:30;7.00;74.30
30385;DHT22;17181;51.002;4.096;2023-02-28T11:20:14;7.10;75.10
30385;DHT22;17181;51.002;4.096;2023-02-28T11:22:45;7.10;74.20
30385;DHT22;17181;51.002;4.096;2023-02-28T11:25:33;7.10;73.10
30385;DHT22;17181;51.002;4.096;2023-02-28T11:28:05;7.10;72.40
30385;DHT22;17181;51.002;4.096;2023-02-28T11:30:35;7.10;71.80
30385;DHT22;17181;51.002;4.096;2023-02-28T11:36:10;7.10;70.90
30385;DHT22;17181;51.002;4.096;2023-02-28T11:38:37;7.10;70.70
30385;DHT22;17181;51.002;4.096;2023-02-28T11:49:35;7.10;70.50
30385;DHT22;17181;51.002;4.096;2023-02-28T12:03:35;7.10;68.60
30385;DHT22;17181;51.002;4.096;2023-02-28T12:06:38;7.20;68.50
30385;DHT22;17181;51.002;4.096;2023-02-28T12:09:29;7.20;68.20
30385;DHT22;17181;51.002;4.096;2023-02-28T12:17:25;7.20;67.60
30385;DHT22;17181;51.002;4.096;2023-02-28T12:25:43;7.50;67.60
30385;DHT22;17181;51.002;4.096;2023-02-28T12:28:17;7.40;67.20
30385;DHT22;17181;51.002;4.096;2023-02-28T12:31:01;7.50;67.00
30385;DHT22;17181;51.002;4.096;2023-02-28T12:33:35;7.60;67.40
30385;DHT22;17181;51.002;4.096;2023-02-28T12:36:08;7.60;67.60
30385;DHT22;17181;51.002;4.096;2023-02-28T12:38:55;7.70;67.00
30385;DHT22;17181;51.002;4.096;2023-02-28T12:41:34;7.70;67.00
30385;DHT22;17181;51.002;4.096;2023-02-28T12:44:46;7.70;67.00
30385;DHT22;17181;51.002;4.096;2023-02-28T12:47:05;7.80;67.00
30385;DHT22;17181;51.002;4.096;2023-02-28T12:52:11;7.80;65.70
30385;DHT22;17181;51.002;4.096;2023-02-28T12:54:55;7.90;65.40
30385;DHT22;17181;51.002;4.096;2023-02-28T13:00:22;7.90;65.70
30385;DHT22;17181;51.002;4.096;2023-02-28T13:05:56;7.90;65.60
30385;DHT22;17181;51.002;4.096;2023-02-28T13:10:57;7.90;64.40
30385;DHT22;17181;51.002;4.096;2023-02-28T13:13:28;7.90;64.40
30385;DHT22;17181;51.002;4.096;2023-02-28T13:16:10;7.90;64.20
30385;DHT22;17181;51.002;4.096;2023-02-28T13:18:37;8.00;64.10
30385;DHT22;17181;51.002;4.096;2023-02-28T13:21:22;8.00;64.30
30385;DHT22;17181;51.002;4.096;2023-02-28T13:28:58;8.10;63.70
30385;DHT22;17181;51.002;4.096;2023-02-28T13:31:24;8.10;63.60
30385;DHT22;17181;51.002;4.096;2023-02-28T13:36:27;8.10;63.60
30385;DHT22;17181;51.002;4.096;2023-02-28T13:39:44;8.10;63.00
30385;DHT22;17181;51.002;4.096;2023-02-28T13:41:49;8.10;63.60
30385;DHT22;17181;51.002;4.096;2023-02-28T13:44:22;8.10;63.00
30385;DHT22;17181;51.002;4.096;2023-02-28T13:49:31;8.20;63.00
30385;DHT22;17181;51.002;4.096;2023-02-28T14:02:51;8.40;61.50
30385;DHT22;17181;51.002;4.096;2023-02-28T14:05:20;8.40;61.50
30385;DHT22;17181;51.002;4.096;2023-02-28T14:07:56;8.40;61.30
30385;DHT22;17181;51.002;4.096;2023-02-28T14:10:28;8.60;62.60
30385;DHT22;17181;51.002;4.096;2023-02-28T14:15:41;10.10;64.30
30385;DHT22;17181;51.002;4.096;2023-02-28T14:18:36;11.30;64.30
30385;DHT22;17181;51.002;4.096;2023-02-28T14:32:02;15.60;59.30
30385;DHT22;17181;51.002;4.096;2023-02-28T14:36:58;16.20;54.70
30385;DHT22;17181;51.002;4.096;2023-02-28T14:39:28;16.40;54.50
30385;DHT22;17181;51.002;4.096;2023-02-28T14:41:57;16.60;53.20
30385;DHT22;17181;51.002;4.096;2023-02-28T14:44:36;16.70;53.20
30385;DHT22;17181;51.002;4.096;2023-02-28T14:47:03;16.80;53.10
30385;DHT22;17181;51.002;4.096;2023-02-28T14:49:43;16.90;53.80
30385;DHT22;17181;51.002;4.096;2023-02-28T14:52:28;17.20;52.40
30385;DHT22;17181;51.002;4.096;2023-02-28T14:55:13;17.30;50.30
30385;DHT22;17181;51.002;4.096;2023-02-28T14:57:53;17.30;50.00
30385;DHT22;17181;51.002;4.096;2023-02-28T15:00:29;17.20;49.40
30385;DHT22;17181;51.002;4.096;2023-02-28T15:03:00;17.10;48.80
30385;DHT22;17181;51.002;4.096;2023-02-28T15:05:30;16.90;48.40
30385;DHT22;17181;51.002;4.096;2023-02-28T15:08:09;16.80;47.30
30385;DHT22;17181;51.002;4.096;2023-02-28T15:10:37;16.60;47.20
30385;DHT22;17181;51.002;4.096;2023-02-28T15:13:10;16.60;47.10
30385;DHT22;17181;51.002;4.096;2023-02-28T15:15:47;16.50;46.70
30385;DHT22;17181;51.002;4.096;2023-02-28T15:21:09;16.50;46.50
30385;DHT22;17181;51.002;4.096;2023-02-28T15:23:40;16.50;45.50
30385;DHT22;17181;51.002;4.096;2023-02-28T15:26:06;16.30;44.20
30385;DHT22;17181;51.002;4.096;2023-02-28T15:28:33;16.00;44.30
30385;DHT22;17181;51.002;4.096;2023-02-28T15:31:02;15.80;44.40
30385;DHT22;17181;51.002;4.096;2023-02-28T15:33:31;15.60;44.90
30385;DHT22;17181;51.002;4.096;2023-02-28T15:36:06;15.70;46.10
30385;DHT22;17181;51.002;4.096;2023-02-28T15:38:35;16.00;46.30
30385;DHT22;17181;51.002;4.096;2023-02-28T15:41:01;16.40;46.10
30385;DHT22;17181;51.002;4.096;2023-02-28T15:43:29;16.60;45.20
30385;DHT22;17181;51.002;4.096;2023-02-28T15:45:59;16.70;45.40
30385;DHT22;17181;51.002;4.096;2023-02-28T15:48:32;16.80;45.30
30385;DHT22;17181;51.002;4.096;2023-02-28T15:53:56;16.70;44.00
30385;DHT22;17181;51.002;4.096;2023-02-28T15:56:28;16.40;43.50
30385;DHT22;17181;51.002;4.096;2023-02-28T15:59:00;16.20;44.10
30385;DHT22;17181;51.002;4.096;2023-02-28T16:01:36;16.10;43.90
30385;DHT22;17181;51.002;4.096;2023-02-28T16:04:06;16.00;43.70
30385;DHT22;17181;51.002;4.096;2023-02-28T16:06:38;15.80;42.90
30385;DHT22;17181;51.002;4.096;2023-02-28T16:09:06;15.70;43.30
30385;DHT22;17181;51.002;4.096;2023-02-28T16:11:37;15.60;43.70
30385;DHT22;17181;51.002;4.096;2023-02-28T16:14:04;15.60;43.40
30385;DHT22;17181;51.002;4.096;2023-02-28T16:16:31;15.50;42.70
30385;DHT22;17181;51.002;4.096;2023-02-28T16:18:58;15.20;42.90
30385;DHT22;17181;51.002;4.096;2023-02-28T16:21:25;15.00;44.20
30385;DHT22;17181;51.002;4.096;2023-02-28T16:23:50;14.80;44.30
30385;DHT22;17181;51.002;4.096;2023-02-28T16:26:21;14.60;44.30
30385;DHT22;17181;51.002;4.096;2023-02-28T16:28:48;14.40;44.80
30385;DHT22;17181;51.002;4.096;2023-02-28T16:31:15;14.40;45.70
30385;DHT22;17181;51.002;4.096;2023-02-28T16:33:43;14.20;45.10
30385;DHT22;17181;51.002;4.096;2023-02-28T16:36:22;14.00;44.90
30385;DHT22;17181;51.002;4.096;2023-02-28T16:38:50;13.70;44.90
30385;DHT22;17181;51.002;4.096;2023-02-28T16:41:19;13.30;45.10
30385;DHT22;17181;51.002;4.096;2023-02-28T16:43:47;12.90;45.30
30385;DHT22;17181;51.002;4.096;2023-02-28T16:46:14;12.40;45.50
30385;DHT22;17181;51.002;4.096;2023-02-28T16:48:40;11.90;45.80
30385;DHT22;17181;51.002;4.096;2023-02-28T16:51:11;11.40;46.20
30385;DHT22;17181;51.002;4.096;2023-02-28T16:53:37;11.00;46.60
30385;DHT22;17181;51.002;4.096;2023-02-28T16:56:03;10.70;47.10
30385;DHT22;17181;51.002;4.096;2023-02-28T16:58:29;10.30;47.40
30385;DHT22;17181;51.002;4.096;2023-02-28T17:00:55;9.90;47.70
30385;DHT22;17181;51.002;4.096;2023-02-28T17:03:24;9.70;48.00
30385;DHT22;17181;51.002;4.096;2023-02-28T17:05:50;9.40;48.70
30385;DHT22;17181;51.002;4.096;2023-02-28T17:08:16;9.10;48.70
30385;DHT22;17181;51.002;4.096;2023-02-28T17:10:42;8.80;49.30
30385;DHT22;17181;51.002;4.096;2023-02-28T17:13:07;8.60;49.40
30385;DHT22;17181;51.002;4.096;2023-02-28T17:15:35;8.30;49.80
30385;DHT22;17181;51.002;4.096;2023-02-28T17:18:02;8.20;50.20
30385;DHT22;17181;51.002;4.096;2023-02-28T17:20:28;8.00;50.70
30385;DHT22;17181;51.002;4.096;2023-02-28T17:22:54;7.80;50.70
30385;DHT22;17181;51.002;4.096;2023-02-28T17:25:21;7.60;50.90
30385;DHT22;17181;51.002;4.096;2023-02-28T17:27:47;7.50;51.10
30385;DHT22;17181;51.002;4.096;2023-02-28T17:30:27;7.30;51.30
30385;DHT22;17181;51.002;4.096;2023-02-28T17:32:56;7.20;51.60
30385;DHT22;17181;51.002;4.096;2023-02-28T17:35:23;7.10;51.90
30385;DHT22;17181;51.002;4.096;2023-02-28T17:37:49;7.00;52.50
30385;DHT22;17181;51.002;4.096;2023-02-28T17:40:18;6.90;52.40
30385;DHT22;17181;51.002;4.096;2023-02-28T17:42:44;6.80;52.50
30385;DHT22;17181;51.002;4.096;2023-02-28T17:45:12;6.70;52.60
30385;DHT22;17181;51.002;4.096;2023-02-28T17:47:38;6.60;52.70
30385;DHT22;17181;51.002;4.096;2023-02-28T17:50:04;6.40;52.80
30385;DHT22;17181;51.002;4.096;2023-02-28T17:52:30;6.40;53.00
30385;DHT22;17181;51.002;4.096;2023-02-28T17:54:56;6.30;53.30
30385;DHT22;17181;51.002;4.096;2023-02-28T17:57:22;6.20;53.40
30385;DHT22;17181;51.002;4.096;2023-02-28T17:59:48;6.10;53.60
30385;DHT22;17181;51.002;4.096;2023-02-28T18:02:14;6.00;53.80
30385;DHT22;17181;51.002;4.096;2023-02-28T18:04:39;5.90;53.90
30385;DHT22;17181;51.002;4.096;2023-02-28T18:07:07;5.80;54.10
30385;DHT22;17181;51.002;4.096;2023-02-28T18:09:34;5.70;54.30